createdAt,value
2022-11-30T00:02:08.879Z,92223.97
2022-11-30T00:07:12.972Z,92199.59
2022-11-30T00:12:15.858Z,92187.56
2022-11-30T00:17:18.570Z,92166.41
2022-11-30T00:22:22.615Z,92277.25
2022-11-30T00:27:25.339Z,92240.03
2022-11-30T00:32:29.016Z,92297.13
2022-11-30T00:37:33.744Z,92460.22
2022-11-30T00:42:36.424Z,92796.03
2022-11-30T00:47:39.186Z,92829.38
2022-11-30T00:52:43.214Z,92709.53
2022-11-30T00:57:45.894Z,92673.34
2022-11-30T01:02:48.693Z,92685.56
2022-11-30T01:07:52.857Z,92621.50
2022-11-30T01:12:55.638Z,92704.38
2022-11-30T01:18:00.329Z,92688.78
2022-11-30T01:23:04.461Z,92523.22
2022-11-30T01:28:07.216Z,92502.03
2022-11-30T01:33:09.938Z,92505.88
2022-11-30T01:38:14.072Z,92466.81
2022-11-30T01:43:16.873Z,92431.88
2022-11-30T01:48:19.605Z,92535.91
2022-11-30T01:53:24.662Z,92648.63
2022-11-30T01:58:29.175Z,92772.09
2022-11-30T02:03:36.858Z,93093.16
2022-11-30T02:08:41.042Z,92955.91
2022-11-30T02:13:55.130Z,93060.75
2022-11-30T02:19:04.974Z,93234.63
2022-11-30T02:24:23.465Z,93546.34
2022-11-30T02:29:30.023Z,93245.25
2022-11-30T02:34:34.379Z,93246.28
2022-11-30T02:39:37.180Z,93377.16
2022-11-30T02:44:41.520Z,93443.03
2022-11-30T02:49:49.873Z,93480.66
2022-11-30T02:54:52.846Z,93395.63
2022-11-30T02:59:56.991Z,93250.72
2022-11-30T03:04:59.700Z,93273.66
2022-11-30T03:10:02.463Z,93230.28
2022-11-30T03:15:07.372Z,93172.59
2022-11-30T03:20:10.854Z,93081.53
2022-11-30T03:25:13.581Z,93047.19
2022-11-30T03:30:17.971Z,92903.41
2022-11-30T03:35:20.914Z,92767.44
2022-11-30T03:40:23.632Z,92623.31
2022-11-30T03:45:27.714Z,92439.22
2022-11-30T03:50:30.408Z,92405.25
2022-11-30T03:55:33.107Z,92339.28
2022-11-30T04:00:37.739Z,92493.03
2022-11-30T04:05:40.538Z,92348.34
2022-11-30T04:10:43.299Z,92234.28
2022-11-30T04:15:48.898Z,92187.75
2022-11-30T04:20:52.185Z,92122.03
2022-11-30T04:25:54.996Z,91974.78
2022-11-30T04:31:00.411Z,91952.47
2022-11-30T04:36:05.470Z,91882.59
2022-11-30T04:41:08.991Z,91859.25
2022-11-30T04:46:13.239Z,91844.19
2022-11-30T04:51:16.004Z,91879.53
2022-11-30T04:56:18.803Z,92015.72
2022-11-30T05:01:23.022Z,91989.59
2022-11-30T05:06:25.837Z,91995.38
2022-11-30T05:11:28.582Z,92027.63
2022-11-30T05:16:32.781Z,92036.91
2022-11-30T05:21:35.948Z,91982.88
2022-11-30T05:26:38.829Z,92124.88
2022-11-30T05:31:42.994Z,92139.09
2022-11-30T05:36:45.717Z,92255.16
2022-11-30T05:41:48.487Z,92395.66
2022-11-30T05:46:52.675Z,92552.44
2022-11-30T05:51:55.461Z,92764.63
2022-11-30T05:56:58.182Z,92899.19
2022-11-30T06:02:02.383Z,92983.09
2022-11-30T06:07:05.252Z,93090.09
2022-11-30T06:12:09.393Z,93167.38
2022-11-30T06:17:13.479Z,93339.53
2022-11-30T06:22:16.207Z,93302.34
2022-11-30T06:27:20.024Z,93442.06
2022-11-30T06:32:24.753Z,93452.88
2022-11-30T06:37:27.622Z,93520.88
2022-11-30T06:42:30.616Z,93548.81
2022-11-30T06:47:34.693Z,93619.44
2022-11-30T06:52:37.439Z,93580.53
2022-11-30T06:57:40.170Z,93555.06
2022-11-30T07:02:44.462Z,93516.75
2022-11-30T07:07:47.225Z,93487.41
2022-11-30T07:12:50.041Z,93409.41
2022-11-30T07:17:54.088Z,93356.97
2022-11-30T07:22:56.907Z,93332.16
2022-11-30T07:27:59.703Z,93177.06
2022-11-30T07:33:03.738Z,93103.19
2022-11-30T07:38:09.795Z,93081.56
2022-11-30T07:43:12.732Z,92995.66
2022-11-30T07:48:16.770Z,92945.13
2022-11-30T07:53:19.483Z,92961.16
2022-11-30T07:58:22.139Z,91644.25
2022-11-30T08:03:26.314Z,91155.81
2022-11-30T08:08:31.427Z,91421.00
2022-11-30T08:13:34.398Z,91546.28
2022-11-30T08:18:38.491Z,91641.84
2022-11-30T08:23:42.590Z,91863.75
2022-11-30T08:28:46.591Z,92158.19
2022-11-30T08:33:51.126Z,92296.66
2022-11-30T08:38:53.943Z,92469.81
2022-11-30T08:43:56.821Z,92579.34
2022-11-30T08:49:20.908Z,92582.91
2022-11-30T08:54:23.603Z,92673.00
2022-11-30T08:59:26.362Z,92775.78
2022-11-30T09:04:30.370Z,92892.25
2022-11-30T09:09:33.014Z,92982.13
2022-11-30T09:14:36.007Z,92846.84
2022-11-30T09:19:40.351Z,92891.13
2022-11-30T09:24:43.020Z,92982.03
2022-11-30T09:29:45.717Z,93076.50
2022-11-30T09:34:50.921Z,93119.94
2022-11-30T09:39:53.948Z,93027.81
2022-11-30T09:45:03.152Z,92984.16
2022-11-30T09:50:12.432Z,93050.41
2022-11-30T09:55:19.121Z,93074.13
2022-11-30T10:00:26.260Z,93072.88
2022-11-30T10:05:47.649Z,92943.69
2022-11-30T10:10:56.105Z,92826.38
2022-11-30T10:16:08.519Z,92969.91
2022-11-30T10:21:23.868Z,93020.75
2022-11-30T10:26:32.066Z,92984.75
2022-11-30T10:31:36.651Z,93071.75
2022-11-30T10:36:43.414Z,92900.81
2022-11-30T10:41:49.430Z,92723.69
2022-11-30T10:46:57.831Z,92662.50
2022-11-30T10:52:03.784Z,92661.25
2022-11-30T10:57:07.776Z,92552.63
2022-11-30T11:02:36.957Z,92774.09
2022-11-30T11:07:55.090Z,92845.72
2022-11-30T11:12:58.554Z,92919.75
2022-11-30T11:18:22.621Z,92900.72
2022-11-30T11:23:31.656Z,92805.22
2022-11-30T11:28:35.732Z,92720.34
2022-11-30T11:33:54.199Z,92725.72
2022-11-30T11:38:59.321Z,92726.72
2022-11-30T11:44:05.360Z,92756.50
2022-11-30T11:49:19.540Z,92835.66
2022-11-30T11:54:24.939Z,92718.47
2022-11-30T11:59:39.747Z,92732.44
2022-11-30T12:04:46.665Z,92485.47
2022-11-30T12:09:59.231Z,92435.97
2022-11-30T12:15:03.320Z,92471.91
2022-11-30T12:20:14.284Z,92318.81
2022-11-30T12:25:24.311Z,92436.25
2022-11-30T12:30:30.418Z,92388.72
2022-11-30T12:35:40.825Z,92369.16
2022-11-30T12:40:51.724Z,92304.56
2022-11-30T12:46:00.072Z,92178.41
2022-11-30T12:51:11.467Z,92099.84
2022-11-30T12:56:23.457Z,92078.00
2022-11-30T13:01:39.251Z,91944.41
2022-11-30T13:06:43.808Z,91931.88
2022-11-30T13:11:50.510Z,92054.31
2022-11-30T13:16:59.357Z,92060.88
2022-11-30T13:22:07.358Z,92163.66
2022-11-30T13:27:16.271Z,92364.31
2022-11-30T13:32:55.294Z,92853.53
2022-11-30T13:37:42.225Z,92699.81
2022-11-30T13:42:51.586Z,92963.66
2022-11-30T13:47:55.875Z,93115.16
2022-11-30T13:53:22.004Z,93147.88
2022-11-30T13:58:29.920Z,93318.34
2022-11-30T14:03:33.240Z,93445.22
2022-11-30T14:08:37.962Z,93370.59
2022-11-30T14:13:42.283Z,93916.34
2022-11-30T14:18:45.648Z,93520.09
2022-11-30T14:23:53.497Z,93886.25
2022-11-30T14:29:04.068Z,93704.13
2022-11-30T14:34:11.746Z,93560.31
2022-11-30T14:39:28.756Z,93406.47
2022-11-30T14:44:37.140Z,93355.38
2022-11-30T14:49:46.521Z,93271.78
2022-11-30T14:54:54.148Z,93172.16
2022-11-30T14:59:58.547Z,93169.13
2022-11-30T15:05:01.514Z,93256.84
2022-11-30T15:10:07.391Z,103369.19
2022-11-30T15:15:20.824Z,104738.19
2022-11-30T15:20:32.619Z,105314.13
2022-11-30T15:25:38.117Z,105877.91
2022-11-30T15:30:44.022Z,106077.31
2022-11-30T15:36:12.415Z,105835.50
2022-11-30T15:41:19.431Z,105440.34
2022-11-30T15:46:35.263Z,105421.97
2022-11-30T15:51:39.660Z,105579.59
2022-11-30T15:56:42.454Z,105292.97
2022-11-30T16:02:04.801Z,105252.94
2022-11-30T16:07:17.470Z,105258.63
2022-11-30T16:12:30.574Z,105228.34
2022-11-30T16:17:35.182Z,105309.03
2022-11-30T16:22:38.524Z,105460.16
2022-11-30T16:27:41.751Z,105403.56
2022-11-30T16:32:46.128Z,105553.31
2022-11-30T16:37:49.054Z,105561.22
2022-11-30T16:42:52.732Z,105738.50
2022-11-30T16:47:56.808Z,105995.81
2022-11-30T16:52:59.834Z,106022.66
2022-11-30T16:58:02.895Z,105875.66
2022-11-30T17:03:09.470Z,105866.81
2022-11-30T17:08:12.582Z,105763.44
2022-11-30T17:13:17.966Z,105747.50
2022-11-30T17:18:22.208Z,105857.34
2022-11-30T17:23:24.970Z,106044.38
2022-11-30T17:28:27.721Z,105643.06
2022-11-30T17:33:33.795Z,105665.72
2022-11-30T17:38:37.082Z,105703.53
2022-11-30T17:43:39.879Z,105731.09
2022-11-30T17:48:44.625Z,105706.06
2022-11-30T17:53:47.724Z,105875.69
2022-11-30T17:58:50.735Z,105997.06
2022-11-30T18:03:56.205Z,106167.16
2022-11-30T18:08:59.269Z,106412.00
2022-11-30T18:14:03.482Z,106424.63
2022-11-30T18:19:13.319Z,106462.94
2022-11-30T18:24:17.274Z,106312.09
2022-11-30T18:29:22.669Z,105923.72
2022-11-30T18:34:27.232Z,106272.56
2022-11-30T18:39:29.929Z,106760.53
2022-11-30T18:44:32.648Z,107029.59
2022-11-30T18:49:36.758Z,107358.53
2022-11-30T18:54:39.501Z,107492.09
2022-11-30T18:59:42.407Z,107726.84
2022-11-30T19:04:46.959Z,107506.16
2022-11-30T19:09:50.303Z,108023.84
2022-11-30T19:14:54.121Z,108131.06
2022-11-30T19:19:58.327Z,108457.38
2022-11-30T19:25:01.159Z,108617.47
2022-11-30T19:30:05.784Z,108851.63
2022-11-30T19:35:10.466Z,109125.31
2022-11-30T19:40:14.156Z,109440.09
2022-11-30T19:45:16.932Z,109798.53
2022-11-30T19:50:21.178Z,110083.59
2022-11-30T19:55:24.032Z,110346.06
2022-11-30T20:00:26.907Z,109437.84
2022-11-30T20:05:31.133Z,110177.00
2022-11-30T20:10:33.879Z,110391.97
2022-11-30T20:15:39.057Z,109198.31
2022-11-30T20:20:43.208Z,109276.56
2022-11-30T20:25:46.025Z,109533.75
2022-11-30T20:30:48.864Z,109643.22
2022-11-30T20:35:53.028Z,109738.91
2022-11-30T20:40:55.885Z,109744.13
2022-11-30T20:45:58.715Z,109778.22
2022-11-30T20:56:35.144Z,109687.81
2022-11-30T21:01:37.937Z,109643.88
2022-11-30T21:06:45.653Z,109555.13
2022-11-30T21:11:49.389Z,109429.22
2022-11-30T21:16:52.179Z,109157.66
2022-11-30T21:21:56.625Z,109147.25
2022-11-30T21:26:59.340Z,109155.78
2022-11-30T21:32:02.086Z,109142.00
2022-11-30T21:37:06.269Z,109116.84
2022-11-30T21:42:09.777Z,108977.00
2022-11-30T21:47:14.415Z,109035.94
2022-11-30T21:52:18.576Z,109173.13
2022-11-30T21:57:21.534Z,109227.88
2022-11-30T22:02:24.284Z,109198.44
2022-11-30T22:07:32.450Z,109130.25
2022-11-30T22:12:35.180Z,108841.13
2022-11-30T22:17:37.900Z,108029.66
2022-11-30T22:22:41.960Z,107928.25
2022-11-30T22:27:44.662Z,107915.00
2022-11-30T22:32:47.408Z,107902.06
2022-11-30T22:37:51.496Z,107995.94
2022-11-30T22:42:54.217Z,108170.56
2022-11-30T22:47:56.927Z,108319.50
2022-11-30T22:53:03.449Z,108478.63
2022-11-30T22:58:06.551Z,108615.06
2022-11-30T23:03:09.323Z,108773.84
2022-11-30T23:08:13.556Z,108863.44
2022-11-30T23:13:16.438Z,108603.41
2022-11-30T23:18:19.178Z,108845.03
2022-11-30T23:23:23.637Z,109043.09
2022-11-30T23:28:26.416Z,109174.13
2022-11-30T23:33:29.291Z,109294.69
2022-11-30T23:38:33.395Z,108962.63
2022-11-30T23:43:36.517Z,109011.81
2022-11-30T23:48:39.641Z,108420.00
2022-11-30T23:53:44.920Z,107379.69
2022-11-30T23:58:48.594Z,106993.31
